sensor_id;sensor_type;location;lat;lon;timestamp;P1;durP1;ratioP1;P2;durP2;ratioP2
21297;SDS011;10808;48.010;11.326;2022-12-05T00:00:51;36.35;;;13.95;;
21297;SDS011;10808;48.010;11.326;2022-12-05T00:03:18;50.80;;;13.77;;
21297;SDS011;10808;48.010;11.326;2022-12-05T00:05:45;26.77;;;13.52;;
21297;SDS011;10808;48.010;11.326;2022-12-05T00:08:11;38.50;;;14.32;;
21297;SDS011;10808;48.010;11.326;2022-12-05T00:10:37;46.35;;;14.55;;
21297;SDS011;10808;48.010;11.326;2022-12-05T00:13:04;33.50;;;14.80;;
21297;SDS011;10808;48.010;11.326;2022-12-05T00:15:35;37.95;;;14.90;;
21297;SDS011;10808;48.010;11.326;2022-12-05T00:18:05;33.42;;;13.73;;
21297;SDS011;10808;48.010;11.326;2022-12-05T00:20:31;37.08;;;14.07;;
21297;SDS011;10808;48.010;11.326;2022-12-05T00:22:57;33.42;;;13.63;;
21297;SDS011;10808;48.010;11.326;2022-12-05T00:25:24;45.63;;;14.10;;
21297;SDS011;10808;48.010;11.326;2022-12-05T00:27:50;51.53;;;14.43;;
21297;SDS011;10808;48.010;11.326;2022-12-05T00:30:16;40.28;;;15.02;;
21297;SDS011;10808;48.010;11.326;2022-12-05T00:32:42;33.58;;;14.43;;
21297;SDS011;10808;48.010;11.326;2022-12-05T00:35:08;33.47;;;13.90;;
21297;SDS011;10808;48.010;11.326;2022-12-05T00:37:34;25.55;;;12.80;;
21297;SDS011;10808;48.010;11.326;2022-12-05T00:40:00;42.33;;;14.23;;
21297;SDS011;10808;48.010;11.326;2022-12-05T00:42:26;26.00;;;13.95;;
21297;SDS011;10808;48.010;11.326;2022-12-05T00:44:52;56.05;;;14.25;;
21297;SDS011;10808;48.010;11.326;2022-12-05T00:47:18;57.80;;;14.97;;
21297;SDS011;10808;48.010;11.326;2022-12-05T00:49:44;47.28;;;14.90;;
21297;SDS011;10808;48.010;11.326;2022-12-05T00:52:11;69.40;;;14.10;;
21297;SDS011;10808;48.010;11.326;2022-12-05T00:54:37;31.52;;;13.95;;
21297;SDS011;10808;48.010;11.326;2022-12-05T00:57:03;40.53;;;13.90;;
21297;SDS011;10808;48.010;11.326;2022-12-05T00:59:29;53.63;;;14.85;;
21297;SDS011;10808;48.010;11.326;2022-12-05T01:01:55;62.28;;;14.70;;
21297;SDS011;10808;48.010;11.326;2022-12-05T01:04:22;71.43;;;15.03;;
21297;SDS011;10808;48.010;11.326;2022-12-05T01:06:49;40.28;;;14.23;;
21297;SDS011;10808;48.010;11.326;2022-12-05T01:09:19;45.97;;;14.27;;
21297;SDS011;10808;48.010;11.326;2022-12-05T01:11:46;101.15;;;15.90;;
21297;SDS011;10808;48.010;11.326;2022-12-05T01:14:13;51.42;;;13.35;;
21297;SDS011;10808;48.010;11.326;2022-12-05T01:16:41;50.53;;;14.65;;
21297;SDS011;10808;48.010;11.326;2022-12-05T01:19:13;78.38;;;15.32;;
21297;SDS011;10808;48.010;11.326;2022-12-05T01:21:44;55.65;;;15.10;;
21297;SDS011;10808;48.010;11.326;2022-12-05T01:24:12;85.32;;;15.43;;
21297;SDS011;10808;48.010;11.326;2022-12-05T01:26:39;71.75;;;15.50;;
21297;SDS011;10808;48.010;11.326;2022-12-05T01:29:06;36.70;;;14.77;;
21297;SDS011;10808;48.010;11.326;2022-12-05T01:31:34;71.18;;;16.20;;
21297;SDS011;10808;48.010;11.326;2022-12-05T01:34:03;52.65;;;14.73;;
21297;SDS011;10808;48.010;11.326;2022-12-05T01:36:30;47.88;;;16.35;;
21297;SDS011;10808;48.010;11.326;2022-12-05T01:38:56;41.67;;;15.43;;
21297;SDS011;10808;48.010;11.326;2022-12-05T01:41:24;45.50;;;15.98;;
21297;SDS011;10808;48.010;11.326;2022-12-05T01:44:05;34.67;;;15.38;;
21297;SDS011;10808;48.010;11.326;2022-12-05T01:46:53;69.97;;;16.73;;
21297;SDS011;10808;48.010;11.326;2022-12-05T01:49:22;47.13;;;15.77;;
21297;SDS011;10808;48.010;11.326;2022-12-05T01:51:52;38.10;;;16.38;;
21297;SDS011;10808;48.010;11.326;2022-12-05T01:54:39;51.30;;;17.03;;
21297;SDS011;10808;48.010;11.326;2022-12-05T01:57:07;40.63;;;16.55;;
21297;SDS011;10808;48.010;11.326;2022-12-05T01:59:37;58.28;;;16.65;;
21297;SDS011;10808;48.010;11.326;2022-12-05T02:02:05;41.67;;;16.00;;
21297;SDS011;10808;48.010;11.326;2022-12-05T02:04:34;41.10;;;16.27;;
21297;SDS011;10808;48.010;11.326;2022-12-05T02:07:08;51.28;;;16.35;;
21297;SDS011;10808;48.010;11.326;2022-12-05T02:09:34;72.97;;;16.13;;
21297;SDS011;10808;48.010;11.326;2022-12-05T02:12:01;42.10;;;16.52;;
21297;SDS011;10808;48.010;11.326;2022-12-05T02:14:33;46.80;;;17.20;;
21297;SDS011;10808;48.010;11.326;2022-12-05T02:22:57;93.70;;;18.00;;
21297;SDS011;10808;48.010;11.326;2022-12-05T02:31:09;80.13;;;17.75;;
21297;SDS011;10808;48.010;11.326;2022-12-05T02:39:09;55.30;;;16.75;;
21297;SDS011;10808;48.010;11.326;2022-12-05T02:42:01;70.80;;;17.30;;
21297;SDS011;10808;48.010;11.326;2022-12-05T02:44:32;93.05;;;17.55;;
21297;SDS011;10808;48.010;11.326;2022-12-05T02:47:05;74.78;;;17.05;;
21297;SDS011;10808;48.010;11.326;2022-12-05T02:49:34;82.15;;;18.23;;
21297;SDS011;10808;48.010;11.326;2022-12-05T02:52:02;65.90;;;17.20;;
21297;SDS011;10808;48.010;11.326;2022-12-05T02:54:32;52.25;;;16.85;;
21297;SDS011;10808;48.010;11.326;2022-12-05T02:57:02;57.08;;;16.48;;
21297;SDS011;10808;48.010;11.326;2022-12-05T02:59:30;57.85;;;16.63;;
21297;SDS011;10808;48.010;11.326;2022-12-05T03:01:56;58.13;;;17.33;;
21297;SDS011;10808;48.010;11.326;2022-12-05T03:04:22;56.75;;;17.77;;
21297;SDS011;10808;48.010;11.326;2022-12-05T03:06:53;73.15;;;17.80;;
21297;SDS011;10808;48.010;11.326;2022-12-05T03:09:29;53.35;;;17.13;;
21297;SDS011;10808;48.010;11.326;2022-12-05T03:14:43;51.72;;;18.02;;
21297;SDS011;10808;48.010;11.326;2022-12-05T03:17:15;83.37;;;19.53;;
21297;SDS011;10808;48.010;11.326;2022-12-05T03:19:54;48.05;;;17.90;;
21297;SDS011;10808;48.010;11.326;2022-12-05T03:22:30;66.25;;;19.70;;
21297;SDS011;10808;48.010;11.326;2022-12-05T03:25:02;45.28;;;17.83;;
21297;SDS011;10808;48.010;11.326;2022-12-05T03:30:17;40.53;;;17.73;;
21297;SDS011;10808;48.010;11.326;2022-12-05T03:35:39;36.73;;;16.90;;
21297;SDS011;10808;48.010;11.326;2022-12-05T03:38:11;32.38;;;16.10;;
21297;SDS011;10808;48.010;11.326;2022-12-05T03:41:39;34.63;;;16.77;;
21297;SDS011;10808;48.010;11.326;2022-12-05T03:46:28;32.10;;;15.10;;
21297;SDS011;10808;48.010;11.326;2022-12-05T03:49:13;31.35;;;15.48;;
21297;SDS011;10808;48.010;11.326;2022-12-05T03:54:28;33.05;;;14.82;;
21297;SDS011;10808;48.010;11.326;2022-12-05T03:57:02;31.35;;;14.55;;
21297;SDS011;10808;48.010;11.326;2022-12-05T03:59:36;31.60;;;14.38;;
21297;SDS011;10808;48.010;11.326;2022-12-05T04:02:31;30.95;;;14.40;;
21297;SDS011;10808;48.010;11.326;2022-12-05T04:05:25;30.93;;;14.50;;
21297;SDS011;10808;48.010;11.326;2022-12-05T04:07:57;32.45;;;15.20;;
21297;SDS011;10808;48.010;11.326;2022-12-05T04:10:36;32.75;;;15.48;;
21297;SDS011;10808;48.010;11.326;2022-12-05T04:13:19;30.10;;;14.98;;
21297;SDS011;10808;48.010;11.326;2022-12-05T04:15:58;32.20;;;15.00;;
21297;SDS011;10808;48.010;11.326;2022-12-05T04:18:50;31.10;;;14.45;;
21297;SDS011;10808;48.010;11.326;2022-12-05T04:21:27;30.42;;;15.35;;
21297;SDS011;10808;48.010;11.326;2022-12-05T04:24:16;30.25;;;15.15;;
21297;SDS011;10808;48.010;11.326;2022-12-05T04:27:16;30.40;;;14.95;;
21297;SDS011;10808;48.010;11.326;2022-12-05T04:30:17;33.40;;;15.10;;
21297;SDS011;10808;48.010;11.326;2022-12-05T04:38:54;32.03;;;15.27;;
21297;SDS011;10808;48.010;11.326;2022-12-05T04:41:31;30.77;;;14.88;;
21297;SDS011;10808;48.010;11.326;2022-12-05T04:44:06;30.63;;;14.45;;
21297;SDS011;10808;48.010;11.326;2022-12-05T04:46:34;28.48;;;14.43;;
21297;SDS011;10808;48.010;11.326;2022-12-05T04:49:03;29.73;;;14.40;;
21297;SDS011;10808;48.010;11.326;2022-12-05T04:51:33;27.20;;;14.17;;
21297;SDS011;10808;48.010;11.326;2022-12-05T04:54:03;28.25;;;14.25;;
21297;SDS011;10808;48.010;11.326;2022-12-05T04:56:39;25.70;;;13.90;;
21297;SDS011;10808;48.010;11.326;2022-12-05T04:59:07;27.33;;;14.20;;
21297;SDS011;10808;48.010;11.326;2022-12-05T05:01:35;28.08;;;14.23;;
21297;SDS011;10808;48.010;11.326;2022-12-05T05:06:52;29.27;;;14.27;;
21297;SDS011;10808;48.010;11.326;2022-12-05T05:09:18;28.27;;;15.00;;
21297;SDS011;10808;48.010;11.326;2022-12-05T05:11:44;30.25;;;14.43;;
21297;SDS011;10808;48.010;11.326;2022-12-05T05:14:11;26.48;;;13.75;;
21297;SDS011;10808;48.010;11.326;2022-12-05T05:16:39;24.42;;;13.50;;
21297;SDS011;10808;48.010;11.326;2022-12-05T05:19:06;26.15;;;13.45;;
21297;SDS011;10808;48.010;11.326;2022-12-05T05:21:35;24.23;;;13.32;;
21297;SDS011;10808;48.010;11.326;2022-12-05T05:24:04;25.33;;;13.03;;
21297;SDS011;10808;48.010;11.326;2022-12-05T05:26:35;25.27;;;13.35;;
21297;SDS011;10808;48.010;11.326;2022-12-05T05:29:06;23.48;;;13.07;;
21297;SDS011;10808;48.010;11.326;2022-12-05T05:31:34;26.10;;;13.40;;
21297;SDS011;10808;48.010;11.326;2022-12-05T05:34:01;21.63;;;12.33;;
21297;SDS011;10808;48.010;11.326;2022-12-05T05:36:27;23.23;;;12.98;;
21297;SDS011;10808;48.010;11.326;2022-12-05T05:38:54;25.02;;;14.50;;
21297;SDS011;10808;48.010;11.326;2022-12-05T05:41:25;27.65;;;15.63;;
21297;SDS011;10808;48.010;11.326;2022-12-05T05:43:56;23.93;;;13.20;;
21297;SDS011;10808;48.010;11.326;2022-12-05T05:46:24;23.60;;;13.20;;
21297;SDS011;10808;48.010;11.326;2022-12-05T05:48:51;23.63;;;12.52;;
21297;SDS011;10808;48.010;11.326;2022-12-05T05:51:18;21.75;;;12.73;;
21297;SDS011;10808;48.010;11.326;2022-12-05T05:53:46;24.77;;;13.40;;
21297;SDS011;10808;48.010;11.326;2022-12-05T05:56:13;26.08;;;13.90;;
21297;SDS011;10808;48.010;11.326;2022-12-05T05:58:41;23.48;;;12.65;;
21297;SDS011;10808;48.010;11.326;2022-12-05T06:01:08;22.40;;;12.80;;
21297;SDS011;10808;48.010;11.326;2022-12-05T06:03:39;23.52;;;13.45;;
21297;SDS011;10808;48.010;11.326;2022-12-05T06:06:06;23.65;;;12.80;;
21297;SDS011;10808;48.010;11.326;2022-12-05T06:08:35;23.03;;;13.10;;
21297;SDS011;10808;48.010;11.326;2022-12-05T06:11:13;26.45;;;14.68;;
21297;SDS011;10808;48.010;11.326;2022-12-05T06:13:43;24.58;;;13.43;;
21297;SDS011;10808;48.010;11.326;2022-12-05T06:16:10;21.63;;;12.65;;
21297;SDS011;10808;48.010;11.326;2022-12-05T06:18:38;24.55;;;13.48;;
21297;SDS011;10808;48.010;11.326;2022-12-05T06:21:04;22.83;;;13.80;;
21297;SDS011;10808;48.010;11.326;2022-12-05T06:23:33;23.10;;;13.63;;
21297;SDS011;10808;48.010;11.326;2022-12-05T06:26:00;22.92;;;12.93;;
21297;SDS011;10808;48.010;11.326;2022-12-05T06:28:27;23.48;;;12.85;;
21297;SDS011;10808;48.010;11.326;2022-12-05T06:30:53;21.08;;;12.77;;
21297;SDS011;10808;48.010;11.326;2022-12-05T06:33:19;21.52;;;12.15;;
21297;SDS011;10808;48.010;11.326;2022-12-05T06:35:45;21.45;;;12.38;;
21297;SDS011;10808;48.010;11.326;2022-12-05T06:38:11;23.25;;;13.20;;
21297;SDS011;10808;48.010;11.326;2022-12-05T06:40:41;21.30;;;12.73;;
21297;SDS011;10808;48.010;11.326;2022-12-05T06:43:09;22.67;;;12.57;;
21297;SDS011;10808;48.010;11.326;2022-12-05T06:45:38;21.05;;;12.50;;
21297;SDS011;10808;48.010;11.326;2022-12-05T06:48:05;22.52;;;13.35;;
21297;SDS011;10808;48.010;11.326;2022-12-05T06:50:32;22.85;;;12.48;;
21297;SDS011;10808;48.010;11.326;2022-12-05T06:52:58;22.83;;;12.90;;
21297;SDS011;10808;48.010;11.326;2022-12-05T06:55:24;21.42;;;12.48;;
21297;SDS011;10808;48.010;11.326;2022-12-05T06:57:50;21.20;;;12.77;;
21297;SDS011;10808;48.010;11.326;2022-12-05T07:00:16;21.52;;;12.38;;
21297;SDS011;10808;48.010;11.326;2022-12-05T07:03:01;20.10;;;12.70;;
21297;SDS011;10808;48.010;11.326;2022-12-05T07:05:27;22.83;;;13.20;;
21297;SDS011;10808;48.010;11.326;2022-12-05T07:07:53;20.73;;;12.57;;
21297;SDS011;10808;48.010;11.326;2022-12-05T07:10:19;20.33;;;12.03;;
21297;SDS011;10808;48.010;11.326;2022-12-05T07:12:45;18.65;;;11.40;;
21297;SDS011;10808;48.010;11.326;2022-12-05T07:15:11;18.75;;;11.77;;
21297;SDS011;10808;48.010;11.326;2022-12-05T07:17:37;18.50;;;11.90;;
21297;SDS011;10808;48.010;11.326;2022-12-05T07:20:04;18.25;;;11.60;;
21297;SDS011;10808;48.010;11.326;2022-12-05T07:22:33;18.38;;;11.18;;
21297;SDS011;10808;48.010;11.326;2022-12-05T07:25:00;18.60;;;12.07;;
21297;SDS011;10808;48.010;11.326;2022-12-05T07:27:26;19.40;;;11.57;;
21297;SDS011;10808;48.010;11.326;2022-12-05T07:29:52;16.63;;;10.77;;
21297;SDS011;10808;48.010;11.326;2022-12-05T07:32:18;17.35;;;11.30;;
21297;SDS011;10808;48.010;11.326;2022-12-05T07:34:44;19.00;;;12.33;;
21297;SDS011;10808;48.010;11.326;2022-12-05T07:37:10;21.02;;;13.25;;
21297;SDS011;10808;48.010;11.326;2022-12-05T07:39:38;19.93;;;12.67;;
21297;SDS011;10808;48.010;11.326;2022-12-05T07:42:04;20.13;;;13.10;;
21297;SDS011;10808;48.010;11.326;2022-12-05T07:44:30;18.98;;;12.43;;
21297;SDS011;10808;48.010;11.326;2022-12-05T07:46:57;18.17;;;11.82;;
21297;SDS011;10808;48.010;11.326;2022-12-05T07:49:23;20.58;;;12.75;;
21297;SDS011;10808;48.010;11.326;2022-12-05T07:51:50;18.55;;;12.27;;
21297;SDS011;10808;48.010;11.326;2022-12-05T07:54:16;20.33;;;12.88;;
21297;SDS011;10808;48.010;11.326;2022-12-05T07:56:42;17.48;;;11.70;;
21297;SDS011;10808;48.010;11.326;2022-12-05T07:59:08;17.92;;;11.85;;
21297;SDS011;10808;48.010;11.326;2022-12-05T08:01:34;18.00;;;11.73;;
21297;SDS011;10808;48.010;11.326;2022-12-05T08:04:01;16.63;;;11.45;;
21297;SDS011;10808;48.010;11.326;2022-12-05T08:06:28;17.45;;;11.70;;
21297;SDS011;10808;48.010;11.326;2022-12-05T08:08:55;20.08;;;13.48;;
21297;SDS011;10808;48.010;11.326;2022-12-05T08:11:23;21.40;;;12.93;;
21297;SDS011;10808;48.010;11.326;2022-12-05T08:13:54;19.73;;;13.32;;
21297;SDS011;10808;48.010;11.326;2022-12-05T08:16:22;22.83;;;14.00;;
21297;SDS011;10808;48.010;11.326;2022-12-05T08:18:56;22.48;;;14.13;;
21297;SDS011;10808;48.010;11.326;2022-12-05T08:21:26;20.02;;;13.25;;
21297;SDS011;10808;48.010;11.326;2022-12-05T08:23:52;17.27;;;11.45;;
21297;SDS011;10808;48.010;11.326;2022-12-05T08:26:21;17.35;;;11.43;;
21297;SDS011;10808;48.010;11.326;2022-12-05T08:28:53;19.08;;;12.07;;
21297;SDS011;10808;48.010;11.326;2022-12-05T08:31:21;18.45;;;12.15;;
21297;SDS011;10808;48.010;11.326;2022-12-05T08:33:49;18.65;;;11.60;;
21297;SDS011;10808;48.010;11.326;2022-12-05T08:36:16;17.55;;;11.65;;
21297;SDS011;10808;48.010;11.326;2022-12-05T08:38:43;17.25;;;11.50;;
21297;SDS011;10808;48.010;11.326;2022-12-05T08:41:10;17.98;;;12.18;;
21297;SDS011;10808;48.010;11.326;2022-12-05T08:43:41;18.35;;;11.52;;
21297;SDS011;10808;48.010;11.326;2022-12-05T08:46:09;19.00;;;12.38;;
21297;SDS011;10808;48.010;11.326;2022-12-05T08:48:36;18.55;;;11.77;;
21297;SDS011;10808;48.010;11.326;2022-12-05T08:51:06;18.17;;;12.00;;
21297;SDS011;10808;48.010;11.326;2022-12-05T08:53:34;17.40;;;11.95;;
21297;SDS011;10808;48.010;11.326;2022-12-05T08:56:01;17.38;;;11.68;;
21297;SDS011;10808;48.010;11.326;2022-12-05T08:58:28;16.95;;;11.82;;
21297;SDS011;10808;48.010;11.326;2022-12-05T09:01:02;16.40;;;11.48;;
21297;SDS011;10808;48.010;11.326;2022-12-05T09:03:38;17.80;;;11.80;;
21297;SDS011;10808;48.010;11.326;2022-12-05T09:08:38;16.75;;;11.68;;
21297;SDS011;10808;48.010;11.326;2022-12-05T09:11:11;15.57;;;10.93;;
21297;SDS011;10808;48.010;11.326;2022-12-05T09:13:42;18.15;;;11.48;;
21297;SDS011;10808;48.010;11.326;2022-12-05T09:16:10;17.95;;;11.40;;
21297;SDS011;10808;48.010;11.326;2022-12-05T09:18:38;16.00;;;11.10;;
21297;SDS011;10808;48.010;11.326;2022-12-05T09:21:10;15.18;;;10.82;;
21297;SDS011;10808;48.010;11.326;2022-12-05T09:23:38;15.50;;;10.57;;
21297;SDS011;10808;48.010;11.326;2022-12-05T09:26:05;14.90;;;10.23;;
21297;SDS011;10808;48.010;11.326;2022-12-05T09:28:32;18.08;;;11.32;;
21297;SDS011;10808;48.010;11.326;2022-12-05T09:31:00;14.10;;;10.02;;
21297;SDS011;10808;48.010;11.326;2022-12-05T09:33:28;15.73;;;10.75;;
21297;SDS011;10808;48.010;11.326;2022-12-05T09:39:29;14.43;;;10.80;;
21297;SDS011;10808;48.010;11.326;2022-12-05T09:45:17;14.10;;;10.50;;
21297;SDS011;10808;48.010;11.326;2022-12-05T09:48:00;13.85;;;10.18;;
21297;SDS011;10808;48.010;11.326;2022-12-05T09:50:45;13.88;;;10.15;;
21297;SDS011;10808;48.010;11.326;2022-12-05T09:53:26;13.57;;;9.70;;
21297;SDS011;10808;48.010;11.326;2022-12-05T09:56:41;15.52;;;10.20;;
21297;SDS011;10808;48.010;11.326;2022-12-05T09:58:53;14.32;;;10.70;;
21297;SDS011;10808;48.010;11.326;2022-12-05T10:04:10;14.82;;;10.07;;
21297;SDS011;10808;48.010;11.326;2022-12-05T10:06:40;15.05;;;11.13;;
21297;SDS011;10808;48.010;11.326;2022-12-05T10:09:24;13.05;;;9.70;;
21297;SDS011;10808;48.010;11.326;2022-12-05T10:15:02;14.43;;;10.27;;
21297;SDS011;10808;48.010;11.326;2022-12-05T10:17:37;15.27;;;10.68;;
21297;SDS011;10808;48.010;11.326;2022-12-05T10:26:01;15.10;;;11.30;;
21297;SDS011;10808;48.010;11.326;2022-12-05T10:28:35;15.75;;;11.52;;
21297;SDS011;10808;48.010;11.326;2022-12-05T10:31:07;15.60;;;11.20;;
21297;SDS011;10808;48.010;11.326;2022-12-05T10:33:39;15.30;;;11.03;;
21297;SDS011;10808;48.010;11.326;2022-12-05T10:36:11;16.08;;;10.48;;
21297;SDS011;10808;48.010;11.326;2022-12-05T10:38:38;17.00;;;11.15;;
21297;SDS011;10808;48.010;11.326;2022-12-05T10:41:07;15.32;;;11.00;;
21297;SDS011;10808;48.010;11.326;2022-12-05T10:43:36;15.93;;;11.77;;
21297;SDS011;10808;48.010;11.326;2022-12-05T10:46:06;15.50;;;11.27;;
21297;SDS011;10808;48.010;11.326;2022-12-05T10:48:37;14.90;;;10.52;;
21297;SDS011;10808;48.010;11.326;2022-12-05T10:51:04;14.68;;;10.60;;
21297;SDS011;10808;48.010;11.326;2022-12-05T10:59:12;11.35;;;8.73;;
21297;SDS011;10808;48.010;11.326;2022-12-05T11:01:53;11.57;;;8.70;;
21297;SDS011;10808;48.010;11.326;2022-12-05T11:09:29;12.15;;;8.27;;
21297;SDS011;10808;48.010;11.326;2022-12-05T11:12:02;10.65;;;7.85;;
21297;SDS011;10808;48.010;11.326;2022-12-05T11:14:30;11.57;;;8.10;;
21297;SDS011;10808;48.010;11.326;2022-12-05T11:16:59;10.60;;;8.27;;
21297;SDS011;10808;48.010;11.326;2022-12-05T11:19:32;12.13;;;7.80;;
21297;SDS011;10808;48.010;11.326;2022-12-05T11:22:00;10.85;;;7.65;;
21297;SDS011;10808;48.010;11.326;2022-12-05T11:24:29;11.02;;;7.60;;
21297;SDS011;10808;48.010;11.326;2022-12-05T11:26:56;9.98;;;7.30;;
21297;SDS011;10808;48.010;11.326;2022-12-05T11:29:36;11.35;;;7.80;;
21297;SDS011;10808;48.010;11.326;2022-12-05T11:32:04;9.27;;;7.13;;
21297;SDS011;10808;48.010;11.326;2022-12-05T11:34:45;9.70;;;7.20;;
21297;SDS011;10808;48.010;11.326;2022-12-05T11:37:22;10.43;;;7.30;;
21297;SDS011;10808;48.010;11.326;2022-12-05T11:39:51;10.27;;;7.30;;
21297;SDS011;10808;48.010;11.326;2022-12-05T11:42:20;10.60;;;6.50;;
21297;SDS011;10808;48.010;11.326;2022-12-05T11:45:02;9.13;;;6.53;;
21297;SDS011;10808;48.010;11.326;2022-12-05T11:50:38;13.85;;;6.93;;
21297;SDS011;10808;48.010;11.326;2022-12-05T11:55:58;8.27;;;6.20;;
21297;SDS011;10808;48.010;11.326;2022-12-05T11:58:36;8.40;;;6.20;;
21297;SDS011;10808;48.010;11.326;2022-12-05T12:01:20;7.80;;;5.82;;
21297;SDS011;10808;48.010;11.326;2022-12-05T12:04:14;7.43;;;5.00;;
21297;SDS011;10808;48.010;11.326;2022-12-05T12:15:42;6.70;;;4.82;;
21297;SDS011;10808;48.010;11.326;2022-12-05T12:32:14;6.35;;;4.50;;
21297;SDS011;10808;48.010;11.326;2022-12-05T12:35:02;5.57;;;4.15;;
21297;SDS011;10808;48.010;11.326;2022-12-05T12:40:20;6.45;;;4.30;;
21297;SDS011;10808;48.010;11.326;2022-12-05T12:43:02;4.50;;;3.50;;
21297;SDS011;10808;48.010;11.326;2022-12-05T12:50:51;5.38;;;4.20;;
21297;SDS011;10808;48.010;11.326;2022-12-05T13:01:51;5.78;;;3.72;;
21297;SDS011;10808;48.010;11.326;2022-12-05T13:04:24;4.32;;;3.00;;
21297;SDS011;10808;48.010;11.326;2022-12-05T13:07:07;4.50;;;3.10;;
21297;SDS011;10808;48.010;11.326;2022-12-05T13:12:14;3.10;;;2.67;;
21297;SDS011;10808;48.010;11.326;2022-12-05T13:14:48;3.20;;;2.55;;
21297;SDS011;10808;48.010;11.326;2022-12-05T13:17:21;3.88;;;2.90;;
21297;SDS011;10808;48.010;11.326;2022-12-05T13:19:51;5.03;;;3.00;;
21297;SDS011;10808;48.010;11.326;2022-12-05T13:22:19;4.20;;;2.83;;
21297;SDS011;10808;48.010;11.326;2022-12-05T13:24:50;3.08;;;2.67;;
21297;SDS011;10808;48.010;11.326;2022-12-05T13:27:19;3.72;;;2.70;;
21297;SDS011;10808;48.010;11.326;2022-12-05T13:32:37;4.88;;;2.95;;
21297;SDS011;10808;48.010;11.326;2022-12-05T13:35:09;9.63;;;4.88;;
21297;SDS011;10808;48.010;11.326;2022-12-05T13:37:43;7.53;;;3.95;;
21297;SDS011;10808;48.010;11.326;2022-12-05T13:40:30;4.57;;;3.17;;
21297;SDS011;10808;48.010;11.326;2022-12-05T13:43:21;6.75;;;4.70;;
21297;SDS011;10808;48.010;11.326;2022-12-05T13:46:06;8.07;;;4.70;;
21297;SDS011;10808;48.010;11.326;2022-12-05T13:48:36;7.28;;;4.50;;
21297;SDS011;10808;48.010;11.326;2022-12-05T13:51:06;6.73;;;4.17;;
21297;SDS011;10808;48.010;11.326;2022-12-05T13:54:05;5.15;;;4.05;;
21297;SDS011;10808;48.010;11.326;2022-12-05T13:56:54;4.72;;;3.63;;
21297;SDS011;10808;48.010;11.326;2022-12-05T14:07:46;4.70;;;3.70;;
21297;SDS011;10808;48.010;11.326;2022-12-05T14:12:55;6.87;;;5.13;;
21297;SDS011;10808;48.010;11.326;2022-12-05T14:18:04;6.20;;;4.78;;
21297;SDS011;10808;48.010;11.326;2022-12-05T14:34:04;2.05;;;1.60;;
21297;SDS011;10808;48.010;11.326;2022-12-05T14:37:23;2.73;;;1.93;;
21297;SDS011;10808;48.010;11.326;2022-12-05T14:39:46;2.90;;;2.33;;
21297;SDS011;10808;48.010;11.326;2022-12-05T14:47:48;3.58;;;2.65;;
21297;SDS011;10808;48.010;11.326;2022-12-05T14:50:33;1.70;;;1.60;;
21297;SDS011;10808;48.010;11.326;2022-12-05T14:53:50;2.80;;;2.47;;
21297;SDS011;10808;48.010;11.326;2022-12-05T14:58:42;3.00;;;1.97;;
21297;SDS011;10808;48.010;11.326;2022-12-05T15:01:39;7.40;;;4.05;;
21297;SDS011;10808;48.010;11.326;2022-12-05T15:09:22;2.17;;;1.70;;
21297;SDS011;10808;48.010;11.326;2022-12-05T15:11:54;1.87;;;1.50;;
21297;SDS011;10808;48.010;11.326;2022-12-05T15:14:21;2.92;;;2.30;;
21297;SDS011;10808;48.010;11.326;2022-12-05T15:16:51;2.13;;;1.75;;
21297;SDS011;10808;48.010;11.326;2022-12-05T15:19:25;1.53;;;1.40;;
21297;SDS011;10808;48.010;11.326;2022-12-05T15:21:55;1.40;;;1.30;;
21297;SDS011;10808;48.010;11.326;2022-12-05T15:24:24;2.30;;;2.00;;
21297;SDS011;10808;48.010;11.326;2022-12-05T15:26:54;2.90;;;2.42;;
21297;SDS011;10808;48.010;11.326;2022-12-05T15:32:00;2.97;;;2.45;;
21297;SDS011;10808;48.010;11.326;2022-12-05T15:40:14;3.67;;;3.17;;
21297;SDS011;10808;48.010;11.326;2022-12-05T15:47:40;3.87;;;3.10;;
21297;SDS011;10808;48.010;11.326;2022-12-05T15:50:12;2.50;;;2.30;;
21297;SDS011;10808;48.010;11.326;2022-12-05T15:52:41;3.25;;;2.50;;
21297;SDS011;10808;48.010;11.326;2022-12-05T15:55:17;2.53;;;2.30;;
21297;SDS011;10808;48.010;11.326;2022-12-05T15:57:50;2.67;;;2.47;;
21297;SDS011;10808;48.010;11.326;2022-12-05T16:00:22;3.20;;;1.98;;
21297;SDS011;10808;48.010;11.326;2022-12-05T16:03:02;1.80;;;1.60;;
21297;SDS011;10808;48.010;11.326;2022-12-05T16:05:34;2.60;;;2.20;;
21297;SDS011;10808;48.010;11.326;2022-12-05T16:08:05;3.33;;;2.40;;
21297;SDS011;10808;48.010;11.326;2022-12-05T16:10:33;2.97;;;2.47;;
21297;SDS011;10808;48.010;11.326;2022-12-05T16:13:01;4.47;;;3.40;;
21297;SDS011;10808;48.010;11.326;2022-12-05T16:15:30;3.50;;;3.10;;
21297;SDS011;10808;48.010;11.326;2022-12-05T16:17:57;4.03;;;3.50;;
21297;SDS011;10808;48.010;11.326;2022-12-05T16:23:03;3.63;;;2.77;;
21297;SDS011;10808;48.010;11.326;2022-12-05T16:25:47;3.10;;;2.80;;
21297;SDS011;10808;48.010;11.326;2022-12-05T16:28:20;3.38;;;2.35;;
21297;SDS011;10808;48.010;11.326;2022-12-05T16:30:54;3.40;;;3.00;;
21297;SDS011;10808;48.010;11.326;2022-12-05T16:33:22;5.80;;;4.00;;
21297;SDS011;10808;48.010;11.326;2022-12-05T16:35:49;4.40;;;3.38;;
21297;SDS011;10808;48.010;11.326;2022-12-05T16:43:18;4.00;;;2.90;;
21297;SDS011;10808;48.010;11.326;2022-12-05T16:45:47;7.37;;;5.07;;
21297;SDS011;10808;48.010;11.326;2022-12-05T16:48:18;7.88;;;5.28;;
21297;SDS011;10808;48.010;11.326;2022-12-05T16:51:13;8.13;;;5.70;;
21297;SDS011;10808;48.010;11.326;2022-12-05T16:53:45;7.80;;;5.43;;
21297;SDS011;10808;48.010;11.326;2022-12-05T16:56:14;5.57;;;4.43;;
21297;SDS011;10808;48.010;11.326;2022-12-05T16:58:44;3.85;;;3.05;;
21297;SDS011;10808;48.010;11.326;2022-12-05T17:01:21;3.88;;;2.90;;
21297;SDS011;10808;48.010;11.326;2022-12-05T17:03:49;5.37;;;3.30;;
21297;SDS011;10808;48.010;11.326;2022-12-05T17:06:16;6.47;;;4.40;;
21297;SDS011;10808;48.010;11.326;2022-12-05T17:08:48;5.97;;;4.30;;
21297;SDS011;10808;48.010;11.326;2022-12-05T17:11:16;5.15;;;3.95;;
21297;SDS011;10808;48.010;11.326;2022-12-05T17:13:46;4.75;;;3.70;;
21297;SDS011;10808;48.010;11.326;2022-12-05T17:16:16;6.07;;;4.22;;
21297;SDS011;10808;48.010;11.326;2022-12-05T17:18:43;6.13;;;4.25;;
21297;SDS011;10808;48.010;11.326;2022-12-05T17:21:14;4.05;;;3.50;;
21297;SDS011;10808;48.010;11.326;2022-12-05T17:23:42;3.70;;;3.10;;
21297;SDS011;10808;48.010;11.326;2022-12-05T17:26:12;4.60;;;3.58;;
21297;SDS011;10808;48.010;11.326;2022-12-05T17:28:39;4.50;;;3.23;;
21297;SDS011;10808;48.010;11.326;2022-12-05T17:31:05;4.40;;;3.53;;
21297;SDS011;10808;48.010;11.326;2022-12-05T17:33:34;4.30;;;3.20;;
21297;SDS011;10808;48.010;11.326;2022-12-05T17:36:00;4.57;;;3.05;;
21297;SDS011;10808;48.010;11.326;2022-12-05T17:38:26;3.40;;;2.88;;
21297;SDS011;10808;48.010;11.326;2022-12-05T17:40:52;3.80;;;3.00;;
21297;SDS011;10808;48.010;11.326;2022-12-05T17:43:18;3.95;;;3.10;;